To NAV CANADA Home Page Login to a new session Search on AWWS site Feedback and Comments Disclaimer Vers la page française équivalente Tips FAQ What's new on the site To the Forecasts and Observations / NOTAM section To "File a Flight Plan" website Publications and other links Update of the User's profile FIC Telephone Numbers My Weather Data Folder Route Weather Data Regional Weather Data Local Weather Data To the Forecasts and Observations / NOTAM section
Request Generated 05/23/2015 at 07:10:38 UTC . Weather information available at that time is displayed.

METAR/TAF

ST. JOHN'S/ST. JOHN'S INTL/NL    

METAR CYYT 230700Z 17019G26KT 8SM -SHRA OVC004 06/06 A2963 RMK SF8
PRESFR SLP035=
SPECI CYYT 230634Z 16020G26KT 8SM -SHRA OVC004 05/05 A2965 RMK SF8
PRESFR SLP043=
METAR CYYT 230600Z CCA 15022G30KT 10SM -SHRA BKN005 OVC010 05/05
A2969 RMK SF6SF2 /R12/ PRESFR SLP057=
METAR CYYT 230600Z 15022G30KT 10SM -SHRA BKN005 OVC010 05/05 A2969
RMK SF6SF2 PRESFR SLP057=
SPECI CYYT 230531Z 14027G35KT 5SM -SHRA BR BKN004 OVC008 04/04 A2972
RMK SF5SF3 PRESFR SLP066=
SPECI CYYT 230515Z 15027G35KT 2SM SHRA BR OVC004 04/04 A2975 RMK SF8
PRESFR SLP078=
METAR CYYT 230500Z 14025G30KT 3SM SHRA BR OVC005 04/03 A2977 RMK SF8
PRESFR SLP083=

TAF CYYT 230545Z 2306/2406 14025G35KT 2SM -RA BR OVC002 TEMPO
2306/2308 6SM -RA BR OVC007
FM230800 23020G30KT 4SM -DZ BR OVC006
FM231200 25025G40KT P6SM SCT006 BKN015
FM231800 25025G35KT P6SM SCT020
BECMG 2322/2324 23015KT
FM240300 23015KT P6SM BKN040
RMK NXT FCST BY 231200Z=
Your time UTC time
Weather data provided by Environment Canada and NAV CANADA